Terminal Aerodrome Forecast
Issued by NWS Sterling, VA

Current Version | Previous Version | Graphics & Text | Print | Product List | Glossary On
Versions: 1 2 3 4 5 6 7 8 9 10 11 12 13 14 15 16 17 18 19 20 21 22 23 24 25
694
FTUS41 KLWX 260900 AAA
TAFIAD
TAF AMD
KIAD 260900Z 2609/2712 08007KT P6SM OVC060
     FM261100 07011KT P6SM OVC020
     FM261300 09007KT P6SM OVC008
     FM261500 10008KT 3SM -DZ BKN008
     FM270500 15006KT 3SM -DZ OVC010=

USA.gov is the U.S. government's official web portal to all federal, state and local government web resources and services.